CDT,Max TemperatureF,Mean TemperatureF,Min TemperatureF,Max Dew PointF,MeanDew PointF,Min DewpointF,Max Humidity, Mean Humidity, Min Humidity, Max Sea Level PressureIn, Mean Sea Level PressureIn, Min Sea Level PressureIn, Max VisibilityMiles, Mean VisibilityMiles, Min VisibilityMiles, Max Wind SpeedMPH, Mean Wind SpeedMPH, Max Gust SpeedMPH,PrecipitationIn, CloudCover, Events, WindDirDegrees
2013-7-1,98,88,78,77,72,65,97,66,35,29.94,29.89,29.85,10,10,10,14,5,17,0.00,0,,108
2013-7-2,95,86,76,74,70,63,88,62,36,30.01,29.97,29.94,10,10,10,17,6,21,0.00,2,,52
2013-7-3,93,82,71,72,68,61,93,65,36,30.01,29.97,29.91,10,10,10,16,6,21,0.00,1,Rain,82
2013-7-4,93,83,72,73,70,64,100,70,39,29.96,29.93,29.88,10,10,7,16,6,21,0.00,0,,96
2013-7-5,95,85,74,77,73,68,94,70,46,29.94,29.89,29.82,10,10,9,17,7,23,0.00,1,,83
2013-7-6,95,86,77,77,75,73,94,73,52,29.88,29.85,29.82,10,10,10,24,9,29,T,2,,110
2013-7-7,90,82,74,76,73,69,91,75,59,29.99,29.92,29.85,10,10,10,30,11,37,0.09,3,Rain,138
2013-7-8,91,83,75,79,76,73,97,81,64,30.07,30.02,29.96,10,10,7,22,10,28,0.19,3,Rain,123
2013-7-9,95,86,77,78,75,71,97,73,49,30.10,30.06,30.02,10,10,7,18,8,26,0.00,1,,123
2013-7-10,93,85,77,78,75,72,97,77,56,30.07,30.02,29.95,10,10,4,17,7,22,0.17,3,Rain-Thunderstorm,129
2013-7-11,96,86,76,77,74,71,100,75,49,30.01,29.96,29.89,10,10,10,22,9,29,0.00,1,,142
2013-7-12,96,86,75,76,73,68,94,69,43,29.95,29.91,29.89,10,10,10,21,9,26,0.00,0,,139
2013-7-13,96,86,76,76,73,69,100,72,43,29.96,29.91,29.88,10,10,10,20,7,24,T,1,,134
2013-7-14,97,86,75,76,74,70,100,73,45,29.92,29.88,29.83,10,10,10,22,11,28,0.00,1,,150
2013-7-15,95,86,77,76,74,71,94,72,49,29.94,29.88,29.86,10,10,10,22,13,26,0.00,1,,139
2013-7-16,93,85,76,76,74,72,91,72,52,30.02,29.95,29.90,10,10,10,23,7,26,0.02,2,Rain,103
2013-7-17,86,80,73,77,74,71,100,83,65,30.12,30.05,29.99,10,8,2,18,6,23,0.94,5,Rain,143
2013-7-18,91,83,74,76,74,73,100,82,63,30.08,30.03,29.95,10,9,1,18,6,23,0.00,2,,49
2013-7-19,92,84,76,77,75,73,100,78,56,30.02,29.97,29.91,10,10,9,17,7,22,0.02,2,Rain-Thunderstorm,89
2013-7-20,89,83,76,80,77,75,100,82,64,29.96,29.92,29.86,10,9,2,20,7,23,0.70,3,Rain-Thunderstorm,118
2013-7-21,94,87,80,79,77,74,94,73,52,29.97,29.91,29.88,10,10,7,24,14,30,0.00,2,,153
2013-7-22,94,87,80,79,77,75,94,75,56,29.99,29.95,29.91,10,10,10,28,17,33,0.00,4,,153
2013-7-23,94,86,77,78,76,74,94,75,56,30.01,29.97,29.92,10,10,10,25,14,33,0.00,3,,156
2013-7-24,94,87,79,79,77,73,100,76,52,29.96,29.93,29.88,10,10,9,23,12,30,0.00,3,,156
2013-7-25,95,87,78,79,76,73,100,76,52,30.03,29.98,29.95,10,10,10,22,12,29,0.00,0,,149
2013-7-26,96,87,77,79,76,72,100,73,46,30.04,29.99,29.93,10,10,10,28,16,35,0.00,1,,165
2013-7-27,95,87,79,79,76,71,94,70,46,29.97,29.91,29.85,10,10,9,24,15,31,0.00,1,,167
2013-7-28,96,87,78,78,76,73,97,73,49,29.94,29.90,29.87,10,10,9,28,17,36,0.00,2,,163
2013-7-29,95,86,77,78,76,73,97,73,49,30.05,29.98,29.93,10,10,9,26,16,33,0.00,1,,151
2013-7-30,97,88,78,78,76,73,97,73,49,30.08,30.04,30.00,10,10,10,23,14,29,0.00,1,,149
2013-7-31,98,87,76,79,75,72,97,71,45,30.06,30.02,29.96,10,10,9,18,10,28,0.00,1,,153